• Join FlightAware (Why Join?)
  • Login
  • US Flag 
04:47AM EDT


 

Airport Tracker/Info


-or-


 

Live Flight TrackerFlight Track Log ✈ OKA2860 ✈ 04-Jul-2014 ✈ ZSHC / HGH - ZGHA / CSX

Flight Track Log - Related Links

Times and Time Zones

All times are in EDT time to prevent confusion due to time zone crossing. See the OKA2860 flight status page for this flight to view local times or setup timezone preferences in your user account.

Time Position Orientation Groundspeed Altitude Reporting Facility
EDT Latitude Longitude Course Direction KTS MPH feet Rate Location/Type
12:53PM 30.0157 119.5949 254° West  Level Estimated
12:54PM 29.9917 119.5022 253° West  Level Estimated
12:55PM 29.9677 119.4094 253° West  Level Estimated
12:56PM 29.9436 119.3168 253° West  Level Estimated
12:57PM 29.9195 119.2242 253° West  Level Estimated
12:58PM 29.8952 119.1316 253° West  Level Estimated
12:59PM 29.8710 119.0391 253° West  Level Estimated
01:00PM 29.8466 118.9466 253° West  Level Estimated
01:01PM 29.8222 118.8541 253° West  Level Estimated
01:02PM 29.7977 118.7618 253° West  Level Estimated
01:03PM 29.7732 118.6694 253° West  Level Estimated
01:04PM 29.7486 118.5771 253° West  Level Estimated
01:05PM 29.7239 118.4849 253° West  Level Estimated
01:06PM 29.6992 118.3926 253° West  Level Estimated
01:07PM 29.6744 118.3005 253° West  Level Estimated
01:08PM 29.6495 118.2084 253° West  Level Estimated
01:09PM 29.6246 118.1163 253° West  Level Estimated
01:10PM 29.5996 118.0243 253° West  Level Estimated
01:11PM 29.5746 117.9323 253° West  Level Estimated
01:12PM 29.5495 117.8403 253° West  Level Estimated
01:13PM 29.5243 117.7485 253° West  Level Estimated
01:14PM 29.4991 117.6566 252° West  Level Estimated
01:15PM 29.4738 117.5648 252° West  Level Estimated
01:16PM 29.4484 117.4731 252° West  Level Estimated
01:17PM 29.4230 117.3814 252° West  Level Estimated
01:18PM 29.3975 117.2897 252° West  Level Estimated
01:19PM 29.3719 117.1981 252° West  Level Estimated
01:20PM 29.3463 117.1065 252° West  Level Estimated
01:21PM 29.3207 117.0150 252° West  Level Estimated
01:22PM 29.2949 116.9235 252° West  Level Estimated
01:23PM 29.2691 116.8321 252° West  Level Estimated
01:24PM 29.2432 116.7407 252° West  Level Estimated
01:25PM 29.2173 116.6494 252° West  Level Estimated
01:26PM 29.1913 116.5581 252° West  Level Estimated
01:27PM 29.1653 116.4668 252° West  Level Estimated
01:28PM 29.1392 116.3756 252° West  Level Estimated
01:29PM 29.1130 116.2845 252° West  Level Estimated
01:30PM 29.0868 116.1934 252° West  Level Estimated
01:31PM 29.0605 116.1023 252° West  Level Estimated
01:32PM 29.0341 116.0113 252° West  Level Estimated
01:33PM 29.0077 115.9203 252° West  Level Estimated
01:34PM 28.9812 115.8294 252° West  Level Estimated
01:35PM 28.9547 115.7385 252° West  Level Estimated
01:36PM 28.9281 115.6477 252° West  Level Estimated
01:37PM 28.9014 115.5569 251° West  Level Estimated
01:38PM 28.8747 115.4662 251° West  Level Estimated
01:39PM 28.8479 115.3755 251° West  Level Estimated
01:40PM 28.8211 115.2849 251° West  Level Estimated
01:41PM 28.7941 115.1943 251° West  Level Estimated
01:42PM 28.7672 115.1037 251° West  Level Estimated
01:43PM 28.7402 115.0132 251° West  Level Estimated
01:44PM 28.7131 114.9228 251° West  Level Estimated
01:45PM 28.6859 114.8324 251° West  Level Estimated
01:46PM 28.6587 114.7420 251° West  Level Estimated
01:47PM 28.6314 114.6517 251° West  Level Estimated
01:48PM 28.6041 114.5614 251° West  Level Estimated
01:49PM 28.5767 114.4712 251° West  Level Estimated
01:50PM 28.5493 114.3810 251° West  Level Estimated
01:51PM 28.5218 114.2909 251° West  Level Estimated
01:52PM 28.4942 114.2008 251° West  Level Estimated
01:53PM 28.4666 114.1108 251° West  Level Estimated
01:54PM 28.4389 114.0208 251° West  Level Estimated
01:55PM 28.4112 113.9309 251° West  Level Estimated
01:56PM 28.3834 113.8410 251° West  Level Estimated
01:57PM 28.3555 113.7512 251° West  Level Estimated
01:58PM 28.3276 113.6614 251° West  Level Estimated
01:59PM 28.2996 113.5716 251° West  Level Estimated
02:00PM 28.2716 113.4819 250° West  Level Estimated
02:01PM 28.2435 113.3923 250° West  Level Estimated
02:02PM 28.2153 113.3027 250° West  Level Estimated
02:03PM 28.1892 113.2196 250° West  Level Estimated
02:04PM 28.1892 113.2196 North  Level Estimated
02:05PM 28.1892 113.2196 North  Level Estimated
02:06PM 28.1892 113.2196 North  Level Estimated
02:07PM 28.1892 113.2196 North  Level Estimated
02:08PM 28.1892 113.2196 North  Level Estimated
02:09PM 28.1892 113.2196 North  Level Estimated
02:10PM 28.1892 113.2196 North  Level Estimated
02:11PM 28.1892 113.2196 North  Level Estimated
02:12PM 28.1892 113.2196 North  Level Estimated
02:13PM 28.1892 113.2196 North  Level Estimated
02:14PM 28.1892 113.2196 North  Level Estimated
02:15PM 28.1892 113.2196 North  Level Estimated
02:16PM 28.1892 113.2196 North  Level Estimated
02:17PM 28.1892 113.2196 North  Level Estimated
02:18PM 28.1892 113.2196 North  Level Estimated
02:19PM 28.1892 113.2196 North  Level Estimated